APG712 RPVK-RPLL
Flight info
| Callsign | APG712 |
|---|---|
| Flight time | 0h 38m |
| Altitude | 26000 |
| Route | MINOR2P MINOR B473 LAIYA LAIYA1A |
| Aircraft | A320/M-SDE3FGHIRWY/LB1 |
Departure
| Time | 2026-05-06 07:32 |
|---|---|
| Airport | Kalibo International Airport (RPVK) |
Arrival
| Time | 2026-05-06 08:11 |
|---|---|
| Airport | Ninoy Aquino International Airport (RPLL) |
| Time | Latitude | Longitude | Altitude | Speed | Heading |
|---|---|---|---|---|---|
| 2026-05-06 07:13 | 11.68468 | 122.37994 | 42 ft | 0 kts | 350° |
| 2026-05-06 07:15 | 11.68469 | 122.37994 | 42 ft | 0 kts | 350° |
| 2026-05-06 07:15 | 11.68468 | 122.37994 | 42 ft | 0 kts | 350° |
| 2026-05-06 07:16 | 11.68469 | 122.37994 | 42 ft | 0 kts | 350° |
| 2026-05-06 07:16 | 11.68468 | 122.37994 | 42 ft | 0 kts | 350° |
| 2026-05-06 07:18 | 11.68469 | 122.37994 | 42 ft | 0 kts | 350° |
| 2026-05-06 07:18 | 11.68468 | 122.37994 | 42 ft | 0 kts | 350° |
| 2026-05-06 07:19 | 11.68469 | 122.37994 | 42 ft | 0 kts | 350° |
| 2026-05-06 07:20 | 11.68468 | 122.37994 | 42 ft | 0 kts | 350° |
| 2026-05-06 07:20 | 11.68469 | 122.37994 | 42 ft | 0 kts | 350° |
| 2026-05-06 07:20 | 11.68468 | 122.37994 | 42 ft | 0 kts | 350° |
| 2026-05-06 07:21 | 11.68469 | 122.37994 | 42 ft | 0 kts | 350° |
| 2026-05-06 07:21 | 11.68468 | 122.37994 | 42 ft | 0 kts | 350° |
| 2026-05-06 07:21 | 11.68469 | 122.37994 | 42 ft | 0 kts | 350° |
| 2026-05-06 07:22 | 11.68468 | 122.37994 | 42 ft | 0 kts | 350° |
| 2026-05-06 07:23 | 11.68469 | 122.37994 | 42 ft | 0 kts | 350° |
| 2026-05-06 07:24 | 11.68468 | 122.37994 | 42 ft | 0 kts | 350° |
| 2026-05-06 07:24 | 11.68462 | 122.37995 | 42 ft | 2 kts | 350° |
| 2026-05-06 07:25 | 11.68453 | 122.37997 | 42 ft | 1 kts | 337° |
| 2026-05-06 07:25 | 11.68442 | 122.38007 | 42 ft | 2 kts | 290° |
| 2026-05-06 07:25 | 11.68441 | 122.38023 | 42 ft | 2 kts | 246° |
| 2026-05-06 07:25 | 11.68445 | 122.38030 | 42 ft | 1 kts | 224° |
| 2026-05-06 07:26 | 11.68449 | 122.38033 | 42 ft | 0 kts | 228° |
| 2026-05-06 07:28 | 11.68439 | 122.38022 | 42 ft | 3 kts | 229° |
| 2026-05-06 07:28 | 11.68414 | 122.38000 | 42 ft | 5 kts | 197° |
| 2026-05-06 07:28 | 11.68318 | 122.37977 | 43 ft | 11 kts | 229° |
| 2026-05-06 07:29 | 11.68257 | 122.37904 | 44 ft | 15 kts | 229° |
| 2026-05-06 07:29 | 11.68179 | 122.37814 | 44 ft | 18 kts | 228° |
| 2026-05-06 07:29 | 11.68084 | 122.37706 | 45 ft | 21 kts | 229° |
| 2026-05-06 07:29 | 11.67978 | 122.37581 | 44 ft | 24 kts | 229° |
| 2026-05-06 07:30 | 11.67859 | 122.37443 | 45 ft | 27 kts | 229° |
| 2026-05-06 07:30 | 11.67729 | 122.37293 | 46 ft | 27 kts | 229° |
| 2026-05-06 07:30 | 11.67606 | 122.37151 | 48 ft | 27 kts | 230° |
| 2026-05-06 07:30 | 11.67489 | 122.37013 | 49 ft | 21 kts | 229° |
| 2026-05-06 07:31 | 11.67384 | 122.36890 | 50 ft | 24 kts | 229° |
| 2026-05-06 07:31 | 11.67265 | 122.36760 | 50 ft | 24 kts | 223° |
| 2026-05-06 07:31 | 11.67216 | 122.36701 | 51 ft | 5 kts | 306° |
| 2026-05-06 07:31 | 11.67252 | 122.36737 | 50 ft | 9 kts | 50° |
| 2026-05-06 07:32 | 11.67362 | 122.36867 | 50 ft | 55 kts | 50° |
| 2026-05-06 07:32 | 11.67783 | 122.37354 | 46 ft | 123 kts | 48° |
| 2026-05-06 07:32 | 11.68467 | 122.38146 | 207 ft | 162 kts | 50° |
| 2026-05-06 07:32 | 11.69195 | 122.39010 | 782 ft | 163 kts | 49° |
| 2026-05-06 07:33 | 11.69977 | 122.39829 | 1453 ft | 163 kts | 32° |
| 2026-05-06 07:33 | 11.71086 | 122.40017 | 1980 ft | 169 kts | 353° |
| 2026-05-06 07:33 | 11.72286 | 122.39709 | 2252 ft | 186 kts | 348° |
| 2026-05-06 07:33 | 11.73596 | 122.39371 | 2518 ft | 203 kts | 349° |
| 2026-05-06 07:34 | 11.75037 | 122.39037 | 2801 ft | 221 kts | 351° |
| 2026-05-06 07:34 | 11.76622 | 122.38718 | 3099 ft | 241 kts | 352° |
| 2026-05-06 07:34 | 11.78333 | 122.38397 | 3477 ft | 259 kts | 353° |
| 2026-05-06 07:34 | 11.80165 | 122.38060 | 4072 ft | 268 kts | 353° |
| 2026-05-06 07:35 | 11.81987 | 122.37727 | 4787 ft | 271 kts | 353° |
| 2026-05-06 07:35 | 11.83851 | 122.37386 | 5526 ft | 275 kts | 352° |
| 2026-05-06 07:35 | 11.85696 | 122.36772 | 6234 ft | 283 kts | 337° |
| 2026-05-06 07:35 | 11.87419 | 122.35799 | 6973 ft | 288 kts | 332° |
| 2026-05-06 07:36 | 11.89167 | 122.34732 | 7717 ft | 292 kts | 332° |
| 2026-05-06 07:36 | 11.90925 | 122.33673 | 8457 ft | 295 kts | 332° |
| 2026-05-06 07:36 | 11.92687 | 122.32635 | 9174 ft | 299 kts | 332° |
| 2026-05-06 07:36 | 11.94515 | 122.31576 | 9889 ft | 302 kts | 332° |
| 2026-05-06 07:37 | 11.96367 | 122.30516 | 10529 ft | 308 kts | 333° |
| 2026-05-06 07:37 | 11.98297 | 122.29421 | 10867 ft | 325 kts | 333° |
| 2026-05-06 07:37 | 12.00332 | 122.28272 | 11153 ft | 342 kts | 333° |
| 2026-05-06 07:37 | 12.02459 | 122.27074 | 11419 ft | 358 kts | 333° |
| 2026-05-06 07:38 | 12.04674 | 122.25829 | 11754 ft | 369 kts | 332° |
| 2026-05-06 07:38 | 12.06936 | 122.24555 | 12296 ft | 373 kts | 332° |
| 2026-05-06 07:38 | 12.09226 | 122.23266 | 12875 ft | 375 kts | 332° |
| 2026-05-06 07:38 | 12.11537 | 122.21964 | 13427 ft | 378 kts | 332° |
| 2026-05-06 07:39 | 12.13843 | 122.20667 | 13939 ft | 381 kts | 332° |
| 2026-05-06 07:39 | 12.16180 | 122.19352 | 14441 ft | 384 kts | 332° |
| 2026-05-06 07:39 | 12.18553 | 122.18016 | 14924 ft | 387 kts | 332° |
| 2026-05-06 07:39 | 12.20919 | 122.16683 | 15390 ft | 390 kts | 332° |
| 2026-05-06 07:40 | 12.23347 | 122.15315 | 15853 ft | 393 kts | 332° |
| 2026-05-06 07:40 | 12.25771 | 122.13950 | 16295 ft | 396 kts | 332° |
| 2026-05-06 07:40 | 12.28199 | 122.12582 | 16708 ft | 399 kts | 332° |
| 2026-05-06 07:40 | 12.30631 | 122.11213 | 17117 ft | 401 kts | 332° |
| 2026-05-06 07:41 | 12.33097 | 122.09824 | 17530 ft | 404 kts | 332° |
| 2026-05-06 07:41 | 12.35572 | 122.08430 | 17939 ft | 406 kts | 332° |
| 2026-05-06 07:41 | 12.38046 | 122.07035 | 18338 ft | 408 kts | 332° |
| 2026-05-06 07:41 | 12.40556 | 122.05620 | 18727 ft | 411 kts | 332° |
| 2026-05-06 07:42 | 12.43060 | 122.04208 | 19111 ft | 413 kts | 332° |
| 2026-05-06 07:42 | 12.45570 | 122.02791 | 19488 ft | 415 kts | 332° |
| 2026-05-06 07:42 | 12.48137 | 122.01343 | 19862 ft | 417 kts | 332° |
| 2026-05-06 07:42 | 12.50670 | 121.99913 | 20228 ft | 420 kts | 332° |
| 2026-05-06 07:43 | 12.53268 | 121.98447 | 20590 ft | 422 kts | 332° |
| 2026-05-06 07:43 | 12.55842 | 121.96993 | 20947 ft | 424 kts | 332° |
| 2026-05-06 07:43 | 12.58417 | 121.95539 | 21304 ft | 426 kts | 332° |
| 2026-05-06 07:43 | 12.61062 | 121.94044 | 21647 ft | 429 kts | 332° |
| 2026-05-06 07:44 | 12.63673 | 121.92567 | 21982 ft | 431 kts | 332° |
| 2026-05-06 07:44 | 12.66293 | 121.91087 | 22321 ft | 433 kts | 332° |
| 2026-05-06 07:44 | 12.68960 | 121.89580 | 22661 ft | 435 kts | 332° |
| 2026-05-06 07:44 | 12.71615 | 121.88078 | 22991 ft | 437 kts | 332° |
| 2026-05-06 07:45 | 12.74303 | 121.86558 | 23328 ft | 438 kts | 332° |
| 2026-05-06 07:45 | 12.76966 | 121.85053 | 23665 ft | 440 kts | 331° |
| 2026-05-06 07:45 | 12.79659 | 121.83529 | 23994 ft | 441 kts | 331° |
| 2026-05-06 07:45 | 12.82333 | 121.82015 | 24295 ft | 444 kts | 331° |
| 2026-05-06 07:46 | 12.85063 | 121.80470 | 24598 ft | 446 kts | 331° |
| 2026-05-06 07:46 | 12.87791 | 121.78925 | 24920 ft | 447 kts | 331° |
| 2026-05-06 07:46 | 12.90525 | 121.77377 | 25285 ft | 447 kts | 331° |
| 2026-05-06 07:46 | 12.93296 | 121.75806 | 25635 ft | 447 kts | 331° |
| 2026-05-06 07:47 | 12.96029 | 121.74256 | 25848 ft | 449 kts | 331° |
| 2026-05-06 07:47 | 12.98752 | 121.72712 | 25858 ft | 450 kts | 331° |
| 2026-05-06 07:47 | 13.01528 | 121.71137 | 25860 ft | 450 kts | 331° |
| 2026-05-06 07:47 | 13.04238 | 121.69600 | 25862 ft | 450 kts | 331° |
| 2026-05-06 07:48 | 13.07014 | 121.68026 | 25863 ft | 449 kts | 331° |
| 2026-05-06 07:48 | 13.09763 | 121.66466 | 25862 ft | 449 kts | 331° |
| 2026-05-06 07:48 | 13.12502 | 121.64911 | 25860 ft | 449 kts | 331° |
| 2026-05-06 07:48 | 13.15246 | 121.63351 | 25863 ft | 450 kts | 331° |
| 2026-05-06 07:49 | 13.18007 | 121.61784 | 25864 ft | 449 kts | 331° |
| 2026-05-06 07:49 | 13.20733 | 121.60235 | 25864 ft | 449 kts | 331° |
| 2026-05-06 07:49 | 13.23474 | 121.58676 | 25861 ft | 449 kts | 331° |
| 2026-05-06 07:49 | 13.26220 | 121.57116 | 25856 ft | 450 kts | 331° |
| 2026-05-06 07:50 | 13.28992 | 121.55540 | 25859 ft | 450 kts | 331° |
| 2026-05-06 07:50 | 13.31713 | 121.53992 | 25857 ft | 450 kts | 331° |
| 2026-05-06 07:50 | 13.34482 | 121.52417 | 25856 ft | 450 kts | 331° |
| 2026-05-06 07:50 | 13.37199 | 121.50871 | 25856 ft | 450 kts | 331° |
| 2026-05-06 07:51 | 13.39946 | 121.49307 | 25853 ft | 450 kts | 331° |
| 2026-05-06 07:51 | 13.42703 | 121.47737 | 25853 ft | 449 kts | 331° |
| 2026-05-06 07:51 | 13.45426 | 121.46184 | 25852 ft | 449 kts | 331° |
| 2026-05-06 07:51 | 13.48163 | 121.44624 | 25852 ft | 449 kts | 331° |
| 2026-05-06 07:52 | 13.50919 | 121.43053 | 25854 ft | 449 kts | 331° |
| 2026-05-06 07:52 | 13.53642 | 121.41501 | 25853 ft | 449 kts | 331° |
| 2026-05-06 07:52 | 13.56391 | 121.39912 | 25539 ft | 450 kts | 330° |
| 2026-05-06 07:52 | 13.59034 | 121.38209 | 24811 ft | 451 kts | 327° |
| 2026-05-06 07:53 | 13.61654 | 121.36403 | 24013 ft | 451 kts | 326° |
| 2026-05-06 07:53 | 13.64219 | 121.34611 | 23384 ft | 445 kts | 326° |
| 2026-05-06 07:53 | 13.66754 | 121.32838 | 22832 ft | 438 kts | 326° |
| 2026-05-06 07:53 | 13.69272 | 121.31078 | 22273 ft | 432 kts | 326° |
| 2026-05-06 07:54 | 13.71759 | 121.29341 | 21726 ft | 427 kts | 326° |
| 2026-05-06 07:54 | 13.74178 | 121.27654 | 21179 ft | 422 kts | 326° |
| 2026-05-06 07:54 | 13.76616 | 121.25954 | 20630 ft | 418 kts | 326° |
| 2026-05-06 07:54 | 13.79011 | 121.24284 | 20084 ft | 414 kts | 326° |
| 2026-05-06 07:55 | 13.82196 | 121.22062 | 19334 ft | 410 kts | 326° |
| 2026-05-06 07:55 | 13.83762 | 121.20969 | 18972 ft | 408 kts | 326° |
| 2026-05-06 07:55 | 13.86125 | 121.19318 | 18417 ft | 405 kts | 326° |
| 2026-05-06 07:55 | 13.88441 | 121.17701 | 17856 ft | 402 kts | 326° |
| 2026-05-06 07:56 | 13.90748 | 121.16090 | 17307 ft | 400 kts | 327° |
| 2026-05-06 07:56 | 13.93066 | 121.14476 | 16758 ft | 397 kts | 328° |
| 2026-05-06 07:56 | 13.95498 | 121.13131 | 16221 ft | 394 kts | 338° |
| 2026-05-06 07:56 | 13.98065 | 121.12225 | 15683 ft | 390 kts | 347° |
| 2026-05-06 07:57 | 14.00729 | 121.11652 | 15131 ft | 387 kts | 350° |
| 2026-05-06 07:57 | 14.03371 | 121.11161 | 14587 ft | 385 kts | 351° |
| 2026-05-06 07:57 | 14.05979 | 121.10684 | 14045 ft | 382 kts | 351° |
| 2026-05-06 07:57 | 14.08602 | 121.10199 | 13501 ft | 379 kts | 351° |
| 2026-05-06 07:58 | 14.11204 | 121.09712 | 12978 ft | 375 kts | 351° |
| 2026-05-06 07:58 | 14.13747 | 121.09232 | 12450 ft | 372 kts | 351° |
| 2026-05-06 07:58 | 14.16299 | 121.08747 | 11896 ft | 369 kts | 351° |
| 2026-05-06 07:58 | 14.18805 | 121.08270 | 11349 ft | 365 kts | 351° |
| 2026-05-06 07:59 | 14.21300 | 121.07795 | 11022 ft | 355 kts | 351° |
| 2026-05-06 07:59 | 14.23704 | 121.07336 | 10792 ft | 341 kts | 351° |
| 2026-05-06 07:59 | 14.25994 | 121.06900 | 10581 ft | 329 kts | 351° |
| 2026-05-06 07:59 | 14.28189 | 121.06483 | 10382 ft | 317 kts | 351° |
| 2026-05-06 08:00 | 14.30368 | 121.06067 | 10210 ft | 305 kts | 351° |
| 2026-05-06 08:00 | 14.32427 | 121.05674 | 10045 ft | 294 kts | 351° |
| 2026-05-06 08:00 | 14.34447 | 121.05290 | 9685 ft | 292 kts | 351° |
| 2026-05-06 08:00 | 14.36432 | 121.04912 | 9299 ft | 291 kts | 351° |
| 2026-05-06 08:01 | 14.38411 | 121.04536 | 8921 ft | 286 kts | 352° |
| 2026-05-06 08:01 | 14.40401 | 121.04157 | 8547 ft | 284 kts | 352° |
| 2026-05-06 08:01 | 14.42325 | 121.03789 | 8182 ft | 283 kts | 350° |
| 2026-05-06 08:01 | 14.44167 | 121.03033 | 7776 ft | 286 kts | 324° |
| 2026-05-06 08:02 | 14.45404 | 121.01452 | 7408 ft | 289 kts | 295° |
| 2026-05-06 08:02 | 14.45777 | 120.99424 | 7037 ft | 290 kts | 266° |
| 2026-05-06 08:02 | 14.45190 | 120.97449 | 6670 ft | 290 kts | 238° |
| 2026-05-06 08:02 | 14.43821 | 120.95943 | 6321 ft | 287 kts | 219° |
| 2026-05-06 08:03 | 14.42265 | 120.94650 | 5971 ft | 286 kts | 218° |
| 2026-05-06 08:03 | 14.40726 | 120.93360 | 5624 ft | 285 kts | 219° |
| 2026-05-06 08:03 | 14.39198 | 120.92056 | 5275 ft | 284 kts | 219° |
| 2026-05-06 08:03 | 14.37689 | 120.90749 | 4948 ft | 281 kts | 219° |
| 2026-05-06 08:04 | 14.36214 | 120.89468 | 4713 ft | 275 kts | 219° |
| 2026-05-06 08:04 | 14.34839 | 120.88142 | 4329 ft | 270 kts | 233° |
| 2026-05-06 08:04 | 14.34139 | 120.86412 | 3946 ft | 260 kts | 264° |
| 2026-05-06 08:04 | 14.34314 | 120.84624 | 3681 ft | 245 kts | 292° |
| 2026-05-06 08:05 | 14.35184 | 120.83154 | 3599 ft | 232 kts | 317° |
| 2026-05-06 08:05 | 14.36459 | 120.82246 | 3543 ft | 213 kts | 341° |
| 2026-05-06 08:05 | 14.37868 | 120.81932 | 3527 ft | 202 kts | 2° |
| 2026-05-06 08:05 | 14.39222 | 120.82198 | 3515 ft | 199 kts | 29° |
| 2026-05-06 08:06 | 14.40272 | 120.83110 | 3446 ft | 196 kts | 51° |
| 2026-05-06 08:06 | 14.41052 | 120.84259 | 3246 ft | 196 kts | 59° |
| 2026-05-06 08:06 | 14.41737 | 120.85463 | 3008 ft | 194 kts | 62° |
| 2026-05-06 08:06 | 14.42401 | 120.86679 | 2770 ft | 193 kts | 62° |
| 2026-05-06 08:07 | 14.43053 | 120.87874 | 2531 ft | 192 kts | 63° |
| 2026-05-06 08:07 | 14.43706 | 120.89060 | 2289 ft | 187 kts | 62° |
| 2026-05-06 08:07 | 14.44341 | 120.90205 | 2045 ft | 175 kts | 62° |
| 2026-05-06 08:07 | 14.44923 | 120.91251 | 1849 ft | 161 kts | 62° |
| 2026-05-06 08:08 | 14.45450 | 120.92199 | 1648 ft | 146 kts | 63° |
| 2026-05-06 08:08 | 14.45935 | 120.93071 | 1451 ft | 135 kts | 65° |
| 2026-05-06 08:08 | 14.46397 | 120.93904 | 1291 ft | 133 kts | 65° |
| 2026-05-06 08:08 | 14.46858 | 120.94737 | 1145 ft | 134 kts | 64° |
| 2026-05-06 08:09 | 14.47313 | 120.95561 | 988 ft | 133 kts | 62° |
| 2026-05-06 08:09 | 14.47779 | 120.96388 | 796 ft | 133 kts | 62° |
| 2026-05-06 08:09 | 14.48241 | 120.97221 | 642 ft | 132 kts | 62° |
| 2026-05-06 08:09 | 14.48695 | 120.98061 | 483 ft | 132 kts | 62° |
| 2026-05-06 08:10 | 14.49157 | 120.98878 | 337 ft | 132 kts | 63° |
| 2026-05-06 08:10 | 14.49619 | 120.99706 | 132 ft | 134 kts | 66° |
| 2026-05-06 08:10 | 14.50077 | 121.00545 | 37 ft | 124 kts | 61° |
| 2026-05-06 08:10 | 14.50421 | 121.01160 | 38 ft | 74 kts | 60° |
| 2026-05-06 08:11 | 14.50613 | 121.01506 | 48 ft | 30 kts | 60° |
| 2026-05-06 08:11 | 14.50697 | 121.01645 | 50 ft | 20 kts | 53° |
| 2026-05-06 08:11 | 14.50791 | 121.01739 | 52 ft | 13 kts | 38° |
| 2026-05-06 08:11 | 14.50869 | 121.01803 | 52 ft | 14 kts | 39° |
| 2026-05-06 08:12 | 14.50958 | 121.01874 | 51 ft | 17 kts | 39° |
| 2026-05-06 08:12 | 14.51025 | 121.01960 | 51 ft | 14 kts | 62° |
| 2026-05-06 08:12 | 14.51098 | 121.01961 | 52 ft | 14 kts | 314° |
| 2026-05-06 08:12 | 14.51178 | 121.01875 | 53 ft | 18 kts | 315° |
| 2026-05-06 08:13 | 14.51277 | 121.01775 | 55 ft | 20 kts | 314° |
| 2026-05-06 08:13 | 14.51380 | 121.01668 | 58 ft | 20 kts | 315° |
| 2026-05-06 08:13 | 14.51480 | 121.01566 | 58 ft | 20 kts | 315° |
| 2026-05-06 08:13 | 14.51580 | 121.01463 | 57 ft | 21 kts | 314° |
| 2026-05-06 08:14 | 14.51666 | 121.01374 | 52 ft | 8 kts | 315° |
| 2026-05-06 08:14 | 14.51713 | 121.01376 | 51 ft | 8 kts | 57° |
| 2026-05-06 08:14 | 14.51740 | 121.01408 | 51 ft | 6 kts | 44° |
| 2026-05-06 08:14 | 14.51759 | 121.01427 | 51 ft | 1 kts | 44° |
| 2026-05-06 08:15 | 14.51762 | 121.01429 | 51 ft | 0 kts | 44° |